Time;durP1;ratioP1;P1;durP2;ratioP2;P2;SDS_P1;SDS_P2;PMS_P1;PMS_P2;Temp;Humidity;BMP_temperature;BMP_pressure;BME280_temperature;BME280_humidity;BME280_pressure;Samples;Min_cycle;Max_cycle;Signal;HPM_P1;HPM_P2
2022/05/05 00:00:35;;;;;;;10.10;8.07;;;11.20;99.90;;;;;;5065501;28;20189;-46
2022/05/05 00:03:01;;;;;;;11.57;6.93;;;11.50;99.90;;;;;;5083020;28;20206;-46
2022/05/05 00:05:26;;;;;;;9.60;7.27;;;11.40;99.90;;;;;;5068971;28;20208;-46
2022/05/05 00:07:52;;;;;;;8.87;7.40;;;11.30;99.90;;;;;;5069115;28;20426;-47
2022/05/05 00:15:48;;;;;;;14.50;9.97;;;11.40;99.90;;;;;;5043373;28;20440;-47
2022/05/05 00:18:14;;;;;;;18.47;13.70;;;11.40;99.90;;;;;;5058538;28;20480;-46
2022/05/05 00:20:41;;;;;;;19.07;14.30;;;11.50;99.90;;;;;;5065706;28;20186;-47
2022/05/05 00:23:07;;;;;;;20.53;14.33;;;11.40;99.90;;;;;;5069246;28;20208;-47
2022/05/05 00:25:33;;;;;;;21.17;14.33;;;11.50;99.90;;;;;;5068861;28;21123;-47
2022/05/05 00:27:59;;;;;;;20.53;12.10;;;11.40;99.90;;;;;;5069018;28;20200;-46
2022/05/05 00:30:25;;;;;;;15.73;11.13;;;11.40;99.90;;;;;;5066847;28;20243;-46
2022/05/05 00:32:50;;;;;;;15.33;10.07;;;11.30;99.90;;;;;;5059199;28;20306;-46
2022/05/05 00:35:16;;;;;;;16.37;10.47;;;11.30;99.90;;;;;;5068636;28;20192;-46
2022/05/05 00:37:41;;;;;;;13.03;7.90;;;11.40;99.90;;;;;;5068996;28;20284;-46
2022/05/05 04:15:55;;;;;;;10.20;5.10;;;10.40;99.90;;;;;;5067044;28;20498;-47
2022/05/05 04:18:21;;;;;;;9.57;6.00;;;10.40;99.90;;;;;;5065432;28;20514;-47
2022/05/05 04:20:47;;;;;;;10.90;6.40;;;10.50;99.90;;;;;;5060040;28;20197;-46
2022/05/05 04:23:13;;;;;;;10.07;5.47;;;10.60;99.90;;;;;;5065582;28;20188;-46
2022/05/05 04:25:43;;;;;;;6.90;5.37;;;10.80;99.90;;;;;;5061136;28;20843;-47
2022/05/05 04:28:11;;;;;;;7.27;5.40;;;11.10;99.90;;;;;;5067301;28;20738;-47
2022/05/05 04:30:38;;;;;;;6.30;5.30;;;10.80;99.90;;;;;;5066640;28;20427;-47
2022/05/05 04:33:04;;;;;;;7.70;5.80;;;11.00;99.90;;;;;;5067365;28;20428;-46
2022/05/05 04:35:30;;;;;;;7.80;5.50;;;11.10;99.90;;;;;;5058236;28;20530;-47
2022/05/05 04:37:56;;;;;;;6.67;6.03;;;11.10;99.90;;;;;;5067059;28;20431;-47
2022/05/05 04:40:22;;;;;;;11.70;6.10;;;11.00;99.90;;;;;;5065648;28;20435;-47
2022/05/05 04:42:48;;;;;;;8.47;5.60;;;11.00;99.90;;;;;;5068818;28;20426;-47
2022/05/05 04:45:14;;;;;;;9.80;6.20;;;10.90;99.90;;;;;;5066859;28;20459;-47
2022/05/05 04:47:39;;;;;;;7.00;5.80;;;10.90;99.90;;;;;;5067061;28;20191;-47
2022/05/05 04:50:06;;;;;;;9.00;6.50;;;10.90;99.90;;;;;;5060040;28;20181;-47
2022/05/05 04:52:33;;;;;;;8.27;5.70;;;10.90;99.90;;;;;;5062896;28;20224;-47
2022/05/05 04:54:59;;;;;;;6.63;5.47;;;11.20;99.90;;;;;;5061386;28;20423;-47
2022/05/05 04:57:25;;;;;;;6.97;5.93;;;11.20;99.90;;;;;;5066459;28;20878;-47
2022/05/05 04:59:51;;;;;;;7.43;5.13;;;11.00;99.90;;;;;;5066059;28;20431;-47
2022/05/05 05:02:17;;;;;;;8.53;5.80;;;11.10;99.90;;;;;;5065553;28;20423;-47
2022/05/05 05:04:42;;;;;;;9.83;5.90;;;11.20;99.90;;;;;;5059220;28;20200;-47
2022/05/05 05:07:08;;;;;;;9.27;6.33;;;11.40;99.90;;;;;;5062016;28;20619;-47
2022/05/05 05:09:37;;;;;;;9.70;6.53;;;11.50;99.90;;;;;;5062393;28;20192;-47
2022/05/05 05:12:03;;;;;;;11.07;7.00;;;11.60;99.90;;;;;;5066514;28;20170;-46
2022/05/05 05:14:29;;;;;;;12.43;6.90;;;11.60;99.90;;;;;;5066749;28;20420;-47
2022/05/05 05:16:54;;;;;;;12.73;6.60;;;11.40;99.90;;;;;;5067969;28;20431;-47
2022/05/05 05:19:20;;;;;;;15.10;7.20;;;11.50;99.90;;;;;;5061760;28;20185;-47
2022/05/05 05:21:47;;;;;;;11.63;7.03;;;11.50;99.90;;;;;;5063613;28;20169;-47
2022/05/05 05:24:13;;;;;;;10.63;7.40;;;11.50;99.90;;;;;;5070411;28;20813;-46
2022/05/05 05:26:40;;;;;;;10.93;7.00;;;11.50;99.90;;;;;;5070368;28;20909;-47
2022/05/05 05:29:05;;;;;;;11.70;7.07;;;11.50;99.90;;;;;;5070089;28;20483;-47
2022/05/05 05:31:31;;;;;;;10.53;7.13;;;11.60;99.90;;;;;;5069941;28;20502;-47
2022/05/05 05:33:57;;;;;;;13.60;7.27;;;11.50;99.90;;;;;;5066369;28;20661;-47
2022/05/05 05:36:23;;;;;;;13.17;7.80;;;11.50;99.90;;;;;;5082243;28;20280;-47
2022/05/05 05:38:49;;;;;;;14.90;7.90;;;11.60;99.90;;;;;;5070234;28;20524;-47
2022/05/05 05:41:14;;;;;;;10.47;7.83;;;11.70;99.90;;;;;;5069663;28;20191;-47
2022/05/05 05:43:40;;;;;;;12.50;7.00;;;11.70;99.90;;;;;;5070060;28;20181;-47
2022/05/05 05:46:06;;;;;;;13.50;7.60;;;11.80;99.90;;;;;;5070072;28;20467;-47
2022/05/05 05:48:32;;;;;;;16.07;8.50;;;11.90;99.90;;;;;;5075235;28;20176;-47
2022/05/05 05:50:58;;;;;;;14.03;7.43;;;12.00;99.90;;;;;;5068593;28;20195;-47
2022/05/05 05:53:24;;;;;;;11.80;7.80;;;12.10;99.90;;;;;;5070312;28;20426;-47
2022/05/05 05:55:50;;;;;;;14.90;7.47;;;12.10;99.90;;;;;;5068280;28;20419;-46
2022/05/05 05:58:15;;;;;;;10.07;8.00;;;12.10;99.90;;;;;;5069668;28;20267;-46
2022/05/05 06:00:41;;;;;;;11.10;7.80;;;12.10;99.90;;;;;;5069343;28;20204;-47
2022/05/05 06:05:51;;;;;;;9.87;6.53;;;12.30;99.90;;;;;;5057747;28;20240;-47
2022/05/05 06:08:17;;;;;;;13.20;7.13;;;12.30;99.90;;;;;;5070054;28;20439;-47
2022/05/05 06:10:43;;;;;;;10.53;7.13;;;12.30;99.90;;;;;;5066521;28;20191;-46
2022/05/05 06:13:09;;;;;;;14.53;8.70;;;12.30;99.90;;;;;;5066622;28;20197;-47
2022/05/05 06:15:35;;;;;;;10.43;7.87;;;12.30;99.90;;;;;;5068136;28;20522;-47
2022/05/05 06:18:00;;;;;;;12.13;8.30;;;12.30;99.90;;;;;;5068478;28;20286;-47
2022/05/05 06:20:26;;;;;;;13.27;7.60;;;12.40;99.90;;;;;;5057652;28;20230;-47
2022/05/05 06:22:52;;;;;;;10.77;7.73;;;12.40;99.90;;;;;;5069286;28;20185;-47
2022/05/05 06:25:23;;;;;;;12.70;7.33;;;12.40;99.90;;;;;;5074672;28;20611;-47
2022/05/05 06:27:49;;;;;;;11.57;7.30;;;12.50;99.90;;;;;;5060718;28;20965;-47
2022/05/05 06:30:16;;;;;;;12.03;7.47;;;12.50;99.90;;;;;;5066869;28;20525;-47
2022/05/05 06:32:43;;;;;;;15.77;8.10;;;12.60;99.90;;;;;;5066423;28;20492;-47
2022/05/05 06:35:09;;;;;;;12.83;7.43;;;12.60;99.90;;;;;;5064413;28;20428;-47
2022/05/05 06:37:36;;;;;;;12.63;8.03;;;12.70;99.90;;;;;;5067817;28;20530;-47
2022/05/05 06:40:02;;;;;;;12.70;8.53;;;12.80;99.90;;;;;;5068194;28;20933;-47
2022/05/05 06:42:28;;;;;;;12.73;8.20;;;12.80;99.90;;;;;;5068902;28;20511;-47
2022/05/05 06:44:54;;;;;;;11.10;7.97;;;12.90;99.90;;;;;;5067164;28;21002;-47
2022/05/05 06:47:20;;;;;;;17.40;8.50;;;13.00;99.90;;;;;;5077958;28;20910;-47
2022/05/05 06:49:46;;;;;;;9.43;7.53;;;13.00;99.90;;;;;;5072234;28;20196;-47
2022/05/05 06:52:12;;;;;;;11.27;7.43;;;13.10;99.90;;;;;;5075718;28;20183;-47
2022/05/05 06:54:37;;;;;;;13.43;8.70;;;13.20;99.90;;;;;;5087888;28;20663;-47
2022/05/05 06:57:04;;;;;;;12.97;8.23;;;13.30;99.90;;;;;;5088947;28;20457;-47
2022/05/05 06:59:30;;;;;;;13.13;8.23;;;13.40;99.90;;;;;;5088301;28;20192;-47
2022/05/05 07:02:00;;;;;;;13.50;7.93;;;13.50;99.90;;;;;;5083733;28;20434;-47
2022/05/05 07:07:13;;;;;;;10.90;8.90;;;13.60;99.90;;;;;;5066972;28;20466;-47
2022/05/05 07:12:24;;;;;;;10.20;7.00;;;13.70;99.90;;;;;;5068693;28;20415;-47
2022/05/05 07:14:50;;;;;;;15.50;7.20;;;13.80;99.90;;;;;;5078747;28;20434;-47
2022/05/05 07:17:16;;;;;;;9.97;6.43;;;13.90;99.90;;;;;;5087473;28;20238;-47
2022/05/05 07:19:42;;;;;;;16.90;8.33;;;13.90;99.90;;;;;;5081596;28;20788;-47
2022/05/05 07:22:08;;;;;;;13.10;8.03;;;14.00;99.90;;;;;;5062795;28;20470;-47
2022/05/05 07:24:34;;;;;;;10.30;6.90;;;14.00;99.90;;;;;;5068074;28;20185;-47
2022/05/05 07:27:01;;;;;;;12.27;7.20;;;14.00;99.90;;;;;;5068131;28;21131;-47
2022/05/05 07:29:27;;;;;;;11.97;7.83;;;14.10;99.90;;;;;;5068019;28;20434;-47
2022/05/05 07:31:53;;;;;;;12.80;7.90;;;14.20;99.90;;;;;;5067302;28;20787;-47
2022/05/05 07:34:19;;;;;;;9.87;7.77;;;14.20;99.90;;;;;;5068076;28;20419;-47
2022/05/05 07:36:45;;;;;;;9.37;7.60;;;14.30;99.90;;;;;;5053112;28;20492;-47
2022/05/05 07:39:11;;;;;;;10.30;7.60;;;14.30;99.90;;;;;;5067591;28;20254;-47
2022/05/05 07:41:37;;;;;;;17.50;7.70;;;14.30;99.90;;;;;;5067354;28;20429;-47
2022/05/05 07:44:05;;;;;;;11.93;7.80;;;14.30;99.90;;;;;;5068137;28;20427;-47
2022/05/05 07:46:35;;;;;;;12.93;8.47;;;14.40;99.90;;;;;;5068238;28;20940;-47
2022/05/05 07:49:05;;;;;;;13.63;7.90;;;14.40;99.90;;;;;;5076990;28;20418;-47
2022/05/05 07:51:32;;;;;;;14.30;7.80;;;14.50;99.90;;;;;;5067691;28;20436;-47
2022/05/05 07:56:44;;;;;;;10.40;8.20;;;14.70;99.90;;;;;;5070021;28;20968;-47
2022/05/05 07:59:10;;;;;;;11.57;8.57;;;14.90;99.90;;;;;;5075411;28;20439;-47
2022/05/05 08:01:36;;;;;;;10.43;8.40;;;15.00;99.90;;;;;;5087888;28;20445;-47
2022/05/05 08:04:02;;;;;;;15.73;8.27;;;15.10;99.90;;;;;;5074639;28;20434;-47
2022/05/05 08:06:28;;;;;;;11.37;8.10;;;15.30;99.90;;;;;;5063589;28;20209;-47
2022/05/05 08:08:54;;;;;;;14.73;7.43;;;15.30;99.90;;;;;;5070693;28;20423;-47
2022/05/05 08:11:20;;;;;;;13.67;8.30;;;15.50;99.60;;;;;;5073506;28;20198;-47
2022/05/05 08:13:45;;;;;;;11.70;8.80;;;15.60;99.00;;;;;;5070254;28;20185;-47
2022/05/05 08:16:11;;;;;;;13.93;8.13;;;15.70;98.10;;;;;;5086749;28;20700;-47
2022/05/05 08:18:38;;;;;;;15.10;9.80;;;15.80;98.10;;;;;;5086843;28;20563;-47
2022/05/05 08:21:10;;;;;;;12.67;8.53;;;15.90;97.50;;;;;;5072623;28;20854;-47
2022/05/05 08:23:36;;;;;;;14.40;9.43;;;15.90;97.60;;;;;;5066091;28;20448;-47
2022/05/05 08:28:47;;;;;;;15.03;9.60;;;16.00;97.20;;;;;;5071664;28;20419;-47
2022/05/05 08:31:13;;;;;;;15.50;10.60;;;16.00;97.20;;;;;;5066608;28;20455;-47
2022/05/05 08:33:39;;;;;;;16.53;10.50;;;16.00;97.90;;;;;;5066213;28;20473;-47
2022/05/05 08:36:06;;;;;;;15.93;11.10;;;16.00;97.90;;;;;;5057940;28;20432;-47
2022/05/05 08:38:32;;;;;;;14.13;10.00;;;16.10;97.20;;;;;;5064884;28;20542;-47
2022/05/05 08:40:59;;;;;;;16.50;8.87;;;16.10;97.80;;;;;;5067031;28;20466;-47
2022/05/05 08:43:25;;;;;;;14.00;8.83;;;16.20;97.80;;;;;;5067020;28;20488;-47
2022/05/05 08:45:53;;;;;;;13.20;9.33;;;16.30;96.70;;;;;;5066013;28;20467;-47
2022/05/05 08:48:19;;;;;;;16.57;10.97;;;16.30;97.20;;;;;;5070169;28;20841;-47
2022/05/05 08:50:50;;;;;;;11.77;9.67;;;16.40;97.60;;;;;;5074036;28;20778;-47
2022/05/05 08:53:17;;;;;;;15.07;10.00;;;16.50;97.10;;;;;;5067989;28;20454;-47
2022/05/05 08:55:45;;;;;;;12.20;9.63;;;16.50;96.50;;;;;;5071031;28;20431;-47
2022/05/05 08:58:12;;;;;;;17.70;10.07;;;16.50;96.40;;;;;;5070937;28;20458;-47
2022/05/05 09:00:38;;;;;;;16.50;9.93;;;16.40;95.90;;;;;;5070495;28;20646;-47
2022/05/05 09:03:08;;;;;;;16.20;11.10;;;16.50;96.80;;;;;;5070998;28;20502;-47
2022/05/05 09:05:47;;;;;;;17.67;11.53;;;16.50;97.10;;;;;;5067415;28;20371;-47
2022/05/05 09:08:32;;;;;;;19.00;11.00;;;16.70;97.20;;;;;;5066118;28;20904;-47
2022/05/05 09:11:04;;;;;;;13.87;10.40;;;16.80;97.10;;;;;;5066746;28;20498;-47
2022/05/05 09:13:30;;;;;;;15.00;11.97;;;16.80;96.70;;;;;;5070864;28;20407;-47
2022/05/05 09:15:57;;;;;;;13.93;9.60;;;16.80;96.20;;;;;;5070490;28;20431;-47
2022/05/05 09:18:31;;;;;;;16.13;11.23;;;16.90;96.40;;;;;;5069864;28;20423;-47
2022/05/05 09:20:58;;;;;;;17.17;11.60;;;16.90;95.90;;;;;;5064458;28;20458;-47
2022/05/05 09:23:36;;;;;;;18.67;11.40;;;17.00;95.30;;;;;;5067340;28;20797;-47
2022/05/05 09:26:08;;;;;;;18.53;13.50;;;17.10;96.00;;;;;;5063450;28;20465;-47
2022/05/05 09:28:37;;;;;;;18.23;12.03;;;17.10;95.50;;;;;;5068814;28;20463;-47
2022/05/05 09:31:10;;;;;;;16.47;11.70;;;17.20;96.10;;;;;;5069850;28;20431;-47
2022/05/05 09:33:39;;;;;;;14.37;11.07;;;17.30;96.50;;;;;;5070741;28;20435;-47
2022/05/05 09:36:16;;;;;;;17.73;12.20;;;17.40;94.70;;;;;;5061466;28;20475;-47
2022/05/05 09:39:04;;;;;;;21.30;13.40;;;17.50;94.80;;;;;;5082201;28;20435;-47
2022/05/05 09:41:42;;;;;;;18.23;11.90;;;17.60;94.70;;;;;;5069654;28;20649;-47
2022/05/05 09:44:21;;;;;;;16.37;12.10;;;17.70;94.70;;;;;;5070600;28;20789;-47
2022/05/05 09:46:48;;;;;;;19.00;12.43;;;17.90;94.70;;;;;;5068554;28;21054;-47
2022/05/05 09:49:19;;;;;;;23.83;13.87;;;18.10;95.00;;;;;;5080724;28;20513;-47
2022/05/05 09:57:39;;;;;;;16.90;12.67;;;18.00;94.00;;;;;;5068648;28;20439;-47
2022/05/05 09:57:40;;;;;;;17.50;13.43;;;18.30;94.40;;;;;;5069871;28;20450;-47
2022/05/05 10:00:23;;;;;;;25.47;13.53;;;18.40;95.00;;;;;;5069307;28;20456;-47
2022/05/05 10:05:39;;;;;;;21.10;14.13;;;18.50;92.70;;;;;;5068246;28;20466;-47
2022/05/05 10:08:05;;;;;;;22.97;14.50;;;18.30;92.10;;;;;;5059210;28;20427;-47
2022/05/05 10:10:31;;;;;;;21.67;13.67;;;18.30;94.20;;;;;;5084211;28;20797;-47
2022/05/05 10:12:58;;;;;;;19.77;14.50;;;18.40;94.30;;;;;;5068296;28;20480;-47
2022/05/05 10:15:25;;;;;;;18.03;13.13;;;18.60;93.60;;;;;;5069594;28;20434;-47
2022/05/05 10:17:51;;;;;;;16.53;12.57;;;18.60;92.20;;;;;;5084217;28;20422;-47
2022/05/05 10:20:18;;;;;;;17.47;13.67;;;18.70;92.90;;;;;;5067694;28;20590;-46
2022/05/05 10:22:57;;;;;;;16.80;12.40;;;18.90;94.00;;;;;;5059227;28;20977;-46
2022/05/05 10:25:26;;;;;;;21.70;14.70;;;19.00;93.40;;;;;;5069304;28;20504;-47
2022/05/05 10:27:54;;;;;;;18.00;13.37;;;19.00;93.10;;;;;;5067976;28;20431;-47
2022/05/05 10:30:34;;;;;;;19.70;13.57;;;18.90;92.10;;;;;;5068657;28;21151;-46
2022/05/05 10:33:06;;;;;;;19.83;14.53;;;18.70;91.70;;;;;;5069017;28;20423;-47
2022/05/05 10:35:45;;;;;;;15.20;12.50;;;18.70;91.80;;;;;;5069369;28;20438;-46
2022/05/05 10:38:43;;;;;;;13.40;11.23;;;18.70;93.00;;;;;;5059049;28;20442;-47
2022/05/05 10:41:30;;;;;;;18.70;13.20;;;18.90;93.50;;;;;;5063198;28;20427;-47
2022/05/05 10:44:18;;;;;;;16.63;12.60;;;19.20;91.80;;;;;;5057150;28;20427;-47
2022/05/05 10:46:57;;;;;;;16.50;13.53;;;19.30;93.10;;;;;;5068765;28;20484;-47
2022/05/05 10:52:09;;;;;;;16.57;13.33;;;19.50;91.00;;;;;;5070514;28;20489;-47
2022/05/05 10:54:39;;;;;;;18.40;11.43;;;19.50;92.10;;;;;;5067437;28;20794;-47
2022/05/05 10:57:26;;;;;;;18.13;12.40;;;19.40;92.50;;;;;;5068642;28;20493;-47
2022/05/05 11:00:15;;;;;;;17.63;11.93;;;19.40;92.50;;;;;;5068684;28;20470;-47
2022/05/05 11:03:00;;;;;;;13.90;11.63;;;19.30;92.50;;;;;;5068374;28;20806;-47
2022/05/05 11:05:31;;;;;;;17.40;12.67;;;19.20;92.40;;;;;;5084045;28;20924;-47
2022/05/05 11:08:06;;;;;;;13.80;11.57;;;19.10;92.20;;;;;;5056522;28;20451;-47
2022/05/05 11:10:41;;;;;;;15.50;12.40;;;19.10;92.50;;;;;;5083052;28;20587;-47
2022/05/05 11:13:08;;;;;;;13.33;11.00;;;19.20;91.80;;;;;;5055803;28;20718;-47
2022/05/05 11:21:32;;;;;;;13.57;10.50;;;19.60;90.60;;;;;;5066376;28;20695;-47
2022/05/05 11:24:00;;;;;;;11.90;9.67;;;19.60;89.70;;;;;;5066026;28;20557;-47
2022/05/05 11:26:26;;;;;;;13.97;10.90;;;19.40;87.80;;;;;;5083676;28;20466;-47
2022/05/05 11:28:53;;;;;;;12.80;10.17;;;19.20;88.30;;;;;;5068177;28;20573;-47
2022/05/05 11:31:19;;;;;;;11.97;9.80;;;19.10;89.90;;;;;;5067883;28;20415;-47
2022/05/05 11:34:03;;;;;;;11.60;10.07;;;19.00;90.40;;;;;;5068148;28;20893;-47
2022/05/05 11:36:41;;;;;;;14.17;9.40;;;19.00;91.60;;;;;;5064884;28;20495;-47
2022/05/05 11:39:10;;;;;;;13.07;9.33;;;19.00;90.90;;;;;;5079062;28;20470;-47
2022/05/05 11:41:35;;;;;;;10.77;8.50;;;19.00;91.10;;;;;;5067101;28;20514;-47
2022/05/05 11:44:17;;;;;;;12.13;8.30;;;19.00;91.40;;;;;;5067780;28;20514;-47
2022/05/05 11:46:44;;;;;;;12.17;8.50;;;19.00;90.90;;;;;;5067671;28;20205;-47
2022/05/05 11:49:10;;;;;;;9.83;8.07;;;18.90;89.40;;;;;;5078287;28;21013;-47
2022/05/05 11:51:36;;;;;;;11.87;9.13;;;18.80;89.30;;;;;;5081176;28;20531;-47
2022/05/05 11:54:25;;;;;;;9.40;7.60;;;18.70;89.80;;;;;;5061711;28;20189;-47
2022/05/05 11:56:53;;;;;;;12.53;8.93;;;18.80;90.60;;;;;;5059482;28;20491;-47
2022/05/05 12:02:18;;;;;;;9.87;7.90;;;19.00;90.40;;;;;;5067874;28;20935;-47
2022/05/05 12:04:52;;;;;;;9.07;7.77;;;19.10;90.80;;;;;;5082628;28;20474;-47
2022/05/05 12:07:22;;;;;;;9.50;7.90;;;19.10;91.20;;;;;;5058636;28;20892;-47
2022/05/05 12:09:49;;;;;;;10.53;6.80;;;19.10;90.90;;;;;;5058691;28;20427;-47
2022/05/05 12:12:22;;;;;;;11.43;7.10;;;19.10;90.80;;;;;;5067563;28;20435;-47
2022/05/05 12:14:53;;;;;;;12.70;7.30;;;19.20;91.00;;;;;;5067658;28;20822;-47
2022/05/05 12:17:24;;;;;;;10.63;8.50;;;19.20;90.80;;;;;;5067016;28;20800;-47
2022/05/05 12:19:55;;;;;;;14.23;8.23;;;19.10;90.00;;;;;;5082375;28;20969;-47
2022/05/05 12:22:28;;;;;;;10.60;7.57;;;19.10;89.70;;;;;;5059096;28;20493;-47
2022/05/05 12:24:54;;;;;;;8.70;6.77;;;19.00;90.40;;;;;;5060140;28;20465;-47
2022/05/05 12:27:34;;;;;;;12.13;7.60;;;18.90;90.90;;;;;;5066111;28;21005;-47
2022/05/05 12:30:01;;;;;;;10.83;7.33;;;18.90;91.20;;;;;;5066845;28;20689;-47
2022/05/05 12:32:27;;;;;;;10.27;7.80;;;18.80;91.10;;;;;;5067092;28;20526;-47
2022/05/05 12:35:05;;;;;;;9.70;8.70;;;18.80;91.40;;;;;;5067550;28;20865;-47
2022/05/05 12:37:31;;;;;;;10.30;7.20;;;18.80;91.50;;;;;;5058932;28;20188;-47
2022/05/05 12:40:03;;;;;;;10.47;7.70;;;18.90;91.60;;;;;;5061305;28;20416;-47
2022/05/05 12:42:39;;;;;;;12.50;8.80;;;18.90;90.30;;;;;;5082497;28;20663;-47
2022/05/05 12:45:08;;;;;;;10.37;7.03;;;18.80;90.60;;;;;;5067153;28;20502;-47
2022/05/05 12:47:42;;;;;;;13.53;7.60;;;18.80;91.00;;;;;;5067044;28;20493;-47
2022/05/05 12:50:27;;;;;;;9.00;7.70;;;18.80;91.90;;;;;;5084936;28;20428;-47
2022/05/05 13:01:24;;;;;;;7.60;6.53;;;18.80;90.80;;;;;;5066529;28;20427;-47
2022/05/05 13:03:53;;;;;;;9.33;6.53;;;18.70;91.90;;;;;;5067025;28;20453;-47
2022/05/05 13:06:19;;;;;;;8.17;6.87;;;18.70;92.30;;;;;;5066925;28;20471;-47
2022/05/05 13:08:47;;;;;;;8.40;6.53;;;18.70;92.20;;;;;;5055652;28;20431;-47
2022/05/05 13:11:14;;;;;;;9.03;7.10;;;18.70;92.50;;;;;;5064780;28;20664;-47
2022/05/05 13:13:40;;;;;;;7.77;6.57;;;18.70;92.50;;;;;;5067252;28;20837;-47
2022/05/05 13:16:06;;;;;;;6.87;6.13;;;18.70;91.60;;;;;;5067130;28;20792;-47
2022/05/05 13:18:31;;;;;;;6.70;6.00;;;18.80;91.10;;;;;;5065589;28;20450;-47
2022/05/05 13:20:57;;;;;;;7.13;6.00;;;18.90;92.50;;;;;;5066324;28;20685;-47
2022/05/05 13:23:23;;;;;;;7.57;6.20;;;19.00;92.50;;;;;;5063917;28;20192;-47
2022/05/05 13:25:48;;;;;;;7.10;5.43;;;19.10;91.00;;;;;;5066699;28;20209;-47
2022/05/05 13:28:14;;;;;;;10.00;4.90;;;19.10;91.90;;;;;;5066800;28;20189;-47
2022/05/05 13:30:40;;;;;;;6.20;5.23;;;19.20;91.70;;;;;;5066495;28;20624;-47
2022/05/05 13:33:05;;;;;;;6.83;5.70;;;19.20;90.60;;;;;;5066814;28;20189;-47
2022/05/05 13:35:31;;;;;;;7.07;5.60;;;19.20;90.30;;;;;;5066611;28;20224;-47
2022/05/05 13:38:00;;;;;;;6.83;5.20;;;19.10;89.40;;;;;;5062412;28;20186;-47
2022/05/05 13:40:26;;;;;;;7.90;5.73;;;19.10;90.40;;;;;;5066825;28;20280;-47
2022/05/05 13:42:51;;;;;;;7.17;5.47;;;19.10;90.80;;;;;;5070133;28;20446;-47
2022/05/05 13:45:17;;;;;;;5.30;4.80;;;19.00;90.80;;;;;;5068775;28;20517;-47
2022/05/05 13:47:44;;;;;;;7.07;5.60;;;18.90;91.00;;;;;;5068844;28;20196;-47
2022/05/05 13:50:10;;;;;;;6.93;6.03;;;18.90;91.50;;;;;;5088219;28;20390;-47
2022/05/05 13:52:37;;;;;;;6.70;5.50;;;18.90;91.60;;;;;;5082444;28;20518;-47
2022/05/05 13:55:04;;;;;;;6.70;5.53;;;18.90;91.70;;;;;;5067023;28;20431;-47
2022/05/05 13:57:31;;;;;;;6.93;5.73;;;18.90;92.10;;;;;;5069854;28;20450;-47
2022/05/05 13:59:57;;;;;;;6.57;5.77;;;18.90;91.60;;;;;;5069224;28;20435;-47
2022/05/05 14:02:22;;;;;;;5.60;5.00;;;18.90;90.70;;;;;;5069869;28;20796;-47
2022/05/05 14:04:49;;;;;;;7.30;5.70;;;18.80;90.30;;;;;;5069548;28;20272;-47
2022/05/05 14:07:14;;;;;;;8.50;6.47;;;18.80;91.20;;;;;;5069365;28;20312;-47
2022/05/05 14:12:24;;;;;;;7.30;5.67;;;18.80;91.70;;;;;;5069759;28;20246;-47
2022/05/05 14:14:50;;;;;;;9.33;5.60;;;18.70;91.10;;;;;;5069958;28;20423;-47
2022/05/05 14:17:17;;;;;;;7.30;6.30;;;18.70;91.20;;;;;;5068025;28;20196;-47
2022/05/05 14:19:44;;;;;;;8.80;5.97;;;18.70;91.50;;;;;;5069247;28;20260;-47
2022/05/05 14:22:10;;;;;;;7.47;5.90;;;18.70;91.20;;;;;;5069299;28;20431;-47
2022/05/05 14:24:36;;;;;;;7.07;5.57;;;18.60;90.60;;;;;;5054940;28;20450;-47
2022/05/05 14:27:02;;;;;;;6.03;5.10;;;18.60;91.20;;;;;;5063442;28;20486;-47
2022/05/05 14:29:31;;;;;;;6.37;5.10;;;18.60;91.80;;;;;;5068034;28;20384;-47
2022/05/05 14:31:57;;;;;;;6.90;5.33;;;18.60;91.60;;;;;;5068359;28;20905;-47
2022/05/05 14:34:23;;;;;;;7.00;5.53;;;18.60;91.80;;;;;;5059270;28;20517;-47
2022/05/05 14:36:49;;;;;;;7.87;5.40;;;18.70;91.80;;;;;;5064746;28;20667;-47
2022/05/05 14:39:15;;;;;;;7.30;5.60;;;18.70;91.90;;;;;;5060150;28;20447;-47
2022/05/05 14:41:40;;;;;;;8.60;6.40;;;18.60;92.20;;;;;;5068074;28;20297;-47
2022/05/05 14:44:06;;;;;;;11.07;5.20;;;18.60;92.30;;;;;;5069337;28;20189;-47
2022/05/05 14:46:34;;;;;;;7.93;6.40;;;18.60;92.10;;;;;;5067082;28;20666;-47
2022/05/05 14:49:00;;;;;;;9.43;6.20;;;18.60;91.60;;;;;;5069535;28;20185;-47
2022/05/05 14:51:26;;;;;;;6.03;5.43;;;18.60;91.50;;;;;;5066880;28;20544;-47
2022/05/05 14:53:53;;;;;;;7.53;6.03;;;18.60;91.60;;;;;;5060804;28;20632;-47
2022/05/05 14:56:19;;;;;;;6.17;5.67;;;18.60;90.70;;;;;;5061606;28;20231;-47
2022/05/05 14:58:45;;;;;;;6.50;5.80;;;18.50;90.70;;;;;;5066097;28;20910;-47
2022/05/05 15:01:10;;;;;;;7.40;5.57;;;18.50;91.70;;;;;;5056674;28;20256;-47
2022/05/05 15:03:38;;;;;;;7.03;5.90;;;18.50;92.30;;;;;;5063720;28;20938;-47
2022/05/05 15:06:04;;;;;;;6.83;6.00;;;18.50;91.50;;;;;;5066954;28;20209;-47
2022/05/05 15:08:30;;;;;;;10.13;6.50;;;18.60;90.30;;;;;;5059044;28;20447;-47
2022/05/05 15:10:56;;;;;;;6.33;5.73;;;18.60;90.90;;;;;;5062650;28;20185;-47
2022/05/05 15:13:22;;;;;;;8.93;6.40;;;18.50;91.30;;;;;;5063668;28;20484;-47
2022/05/05 15:15:51;;;;;;;6.20;5.60;;;18.60;90.80;;;;;;5067652;28;20296;-47
2022/05/05 15:18:16;;;;;;;7.03;5.60;;;18.60;91.20;;;;;;5067034;28;20869;-47
2022/05/05 15:20:42;;;;;;;8.67;6.23;;;18.60;90.50;;;;;;5066476;28;20803;-47
2022/05/05 15:23:08;;;;;;;9.33;5.90;;;18.60;90.70;;;;;;5070271;28;20194;-47
2022/05/05 15:25:33;;;;;;;6.30;5.60;;;18.60;91.20;;;;;;5070968;28;20368;-47
2022/05/05 15:27:59;;;;;;;6.67;5.80;;;18.60;90.70;;;;;;5071009;28;20233;-47
2022/05/05 15:30:25;;;;;;;6.73;5.90;;;18.70;91.10;;;;;;5075320;28;20802;-47
2022/05/05 15:32:51;;;;;;;6.63;5.10;;;18.70;91.60;;;;;;5066400;28;20344;-47
2022/05/05 15:35:16;;;;;;;6.13;4.93;;;18.80;91.50;;;;;;5072577;28;20210;-47
2022/05/05 15:37:45;;;;;;;5.20;4.70;;;18.80;90.50;;;;;;5065593;28;20515;-47
2022/05/05 15:40:11;;;;;;;5.87;5.03;;;18.90;90.10;;;;;;5064626;28;20192;-47
2022/05/05 15:42:37;;;;;;;9.17;6.83;;;18.90;90.10;;;;;;5077319;28;20438;-47
2022/05/05 15:45:03;;;;;;;10.30;6.23;;;18.80;90.40;;;;;;5074369;28;20982;-47
2022/05/05 15:47:29;;;;;;;5.63;5.03;;;18.80;89.40;;;;;;5065366;28;20261;-47
2022/05/05 15:49:56;;;;;;;8.10;5.97;;;18.80;89.90;;;;;;5073016;28;20458;-47
2022/05/05 15:52:23;;;;;;;7.60;5.20;;;18.70;90.00;;;;;;5066870;28;20529;-47
2022/05/05 15:54:50;;;;;;;5.63;4.83;;;18.70;90.20;;;;;;5053393;28;20446;-47
2022/05/05 15:57:16;;;;;;;6.80;4.50;;;18.60;89.40;;;;;;5066825;28;20447;-47
2022/05/05 15:59:44;;;;;;;6.60;4.20;;;18.70;91.00;;;;;;5066071;28;20541;-47
2022/05/05 16:02:14;;;;;;;5.27;4.20;;;18.70;91.20;;;;;;5066171;28;20420;-47
2022/05/05 16:04:43;;;;;;;5.40;4.03;;;18.70;91.30;;;;;;5066391;28;20431;-47
2022/05/05 16:07:09;;;;;;;6.67;4.13;;;18.70;90.40;;;;;;5067017;28;20495;-47
2022/05/05 16:09:35;;;;;;;4.80;4.17;;;18.70;90.70;;;;;;5057209;28;20459;-47
2022/05/05 16:12:01;;;;;;;3.40;3.10;;;18.70;89.00;;;;;;5073686;28;20423;-47
2022/05/05 16:14:28;;;;;;;5.13;3.90;;;18.70;89.00;;;;;;5071672;28;20683;-47
2022/05/05 16:16:57;;;;;;;4.63;3.97;;;18.60;90.50;;;;;;5082836;28;20596;-47
2022/05/05 16:19:24;;;;;;;4.30;3.90;;;18.60;90.40;;;;;;5085807;28;20840;-47
2022/05/05 16:21:50;;;;;;;4.77;3.47;;;18.60;90.10;;;;;;5072816;28;20435;-47
2022/05/05 16:24:16;;;;;;;4.10;3.60;;;18.70;89.80;;;;;;5061783;28;20443;-47
2022/05/05 16:32:10;;;;;;;4.10;3.23;;;18.80;89.20;;;;;;5063320;28;20430;-47
2022/05/05 16:34:36;;;;;;;3.40;3.10;;;18.90;90.40;;;;;;5062299;28;20440;-47
2022/05/05 16:37:04;;;;;;;6.90;3.77;;;18.90;90.40;;;;;;5066767;28;20208;-47
2022/05/05 16:39:31;;;;;;;4.20;3.80;;;18.90;89.00;;;;;;5058529;28;20196;-47
2022/05/05 16:41:58;;;;;;;4.20;3.83;;;18.80;85.90;;;;;;5065371;28;20512;-47
2022/05/05 16:44:24;;;;;;;4.17;3.40;;;18.80;86.20;;;;;;5067322;28;20423;-47
2022/05/05 16:46:49;;;;;;;7.70;3.80;;;18.70;87.30;;;;;;5066721;28;20905;-47
2022/05/05 16:49:17;;;;;;;5.90;4.37;;;18.70;86.20;;;;;;5077403;28;20173;-47
2022/05/05 16:51:50;;;;;;;4.67;3.37;;;18.60;85.10;;;;;;5086704;28;20779;-47
2022/05/05 16:54:20;;;;;;;4.70;4.20;;;18.60;87.20;;;;;;5070403;28;20436;-47
2022/05/05 16:56:47;;;;;;;4.87;3.90;;;18.50;86.70;;;;;;5066974;28;20485;-47
2022/05/05 16:59:13;;;;;;;5.00;3.97;;;18.60;86.30;;;;;;5067200;28;20424;-47
2022/05/05 17:01:39;;;;;;;4.20;3.73;;;18.40;86.40;;;;;;5066439;28;20420;-47
2022/05/05 17:04:05;;;;;;;4.40;4.00;;;18.40;88.10;;;;;;5082431;28;20938;-47
2022/05/05 17:06:31;;;;;;;4.43;3.13;;;18.40;87.20;;;;;;5067117;28;20458;-47
2022/05/05 17:08:57;;;;;;;4.63;3.43;;;18.30;87.50;;;;;;5059394;28;20432;-47
2022/05/05 17:11:22;;;;;;;4.23;3.80;;;18.30;87.40;;;;;;5058107;28;20181;-47